Terminal Aerodrome Forecast
Issued by NWS Cleveland, OH

Current Version | Previous Version | Text Only | Print | Product List | Glossary On
Versions: 1 2 3 4 5 6 7 8 9 10 11 12 13 14 15 16 17 18 19
054
FTUS41 KCLE 041736
TAFCAK
TAF
KCAK 041736Z 0418/0518 18007KT P6SM VCSH BKN050 BKN100
     FM042000 22010KT P6SM -SHRA OVC050
      TEMPO 0420/0422 3SM -TSRA OVC025CB
     FM042200 26007KT 3SM -SHRA BR OVC025
     FM050200 35007KT 3SM BR OVC015
      TEMPO 0509/0512 BKN008 OVC015
     FM051600 02010KT P6SM BKN030=

USA.gov is the U.S. government's official web portal to all federal, state and local government web resources and services.